Terminal Aerodrome Forecast
Issued by NWS Wilmington, OH

Current Version | Previous Version | Graphics & Text | Print | Product List | Glossary On
Versions: 1 2 3 4 5 6 7 8 9
426
FTUS41 KILN 221136
TAFDAY
TAF
KDAY 221136Z 2212/2312 02009KT P6SM SCT030 OVC100
     FM221600 04012G18KT P6SM BKN080
     FM230400 04012KT P6SM SCT200=

USA.gov is the U.S. government's official web portal to all federal, state and local government web resources and services.